Time;durP1;ratioP1;P1;durP2;ratioP2;P2;SDS_P1;SDS_P2;PMS_P1;PMS_P2;Temp;Humidity;BMP_temperature;BMP_pressure;BME280_temperature;BME280_humidity;BME280_pressure;Samples;Min_cycle;Max_cycle;Signal;HPM_P1;HPM_P2
2022/05/15 00:02:21;;;;;;;4.50;1.77;;;;;;;22.25;51.58;100474.13;5111056;28;20172;-63
2022/05/15 00:04:47;;;;;;;5.30;2.60;;;;;;;22.25;51.29;100474.97;5109831;28;20930;-63
2022/05/15 00:07:12;;;;;;;6.10;2.17;;;;;;;22.24;51.58;100470.44;5104339;28;20178;-63
2022/05/15 00:09:38;;;;;;;5.27;2.30;;;;;;;22.23;51.56;100460.13;5090043;28;20647;-63
2022/05/15 00:12:04;;;;;;;4.43;2.17;;;;;;;22.23;51.64;100468.75;5090184;28;20202;-63
2022/05/15 00:14:30;;;;;;;3.60;2.37;;;;;;;22.22;51.56;100467.13;5108068;28;20178;-63
2022/05/15 00:16:55;;;;;;;7.60;2.03;;;;;;;22.23;51.68;100470.84;5115245;27;20515;-63
2022/05/15 00:19:21;;;;;;;6.80;2.10;;;;;;;22.21;51.87;100465.47;5133926;27;20423;-63
2022/05/15 00:21:46;;;;;;;4.60;2.17;;;;;;;22.21;52.16;100462.59;5134396;27;20217;-63
2022/05/15 00:24:12;;;;;;;5.73;2.03;;;;;;;22.21;52.28;100451.09;5133959;27;20169;-63
2022/05/15 00:26:37;;;;;;;3.60;2.10;;;;;;;22.21;51.50;100453.13;5134127;27;20236;-63
2022/05/15 00:29:03;;;;;;;4.50;2.27;;;;;;;22.20;51.63;100442.88;5134227;27;20180;-63
2022/05/15 00:31:28;;;;;;;3.27;2.00;;;;;;;22.19;51.96;100447.81;5132634;27;20211;-63
2022/05/15 00:33:54;;;;;;;2.97;2.07;;;;;;;22.19;52.33;100449.84;5126270;27;20177;-63
2022/05/15 00:36:19;;;;;;;4.60;1.90;;;;;;;22.18;52.41;100437.50;5113238;28;20704;-63
2022/05/15 00:38:45;;;;;;;3.70;1.60;;;;;;;22.19;52.23;100446.97;5093514;28;20178;-63
2022/05/15 00:41:10;;;;;;;3.37;2.20;;;;;;;22.19;51.82;100449.84;5092804;28;20625;-63
2022/05/15 00:43:47;;;;;;;4.30;2.23;;;;;;;22.16;51.88;100447.75;5102743;28;20185;-63
2022/05/15 00:46:15;;;;;;;4.47;2.27;;;;;;;22.15;51.48;100446.97;5092726;28;20217;-63
2022/05/15 00:48:41;;;;;;;4.20;1.77;;;;;;;22.13;51.59;100437.88;5092421;28;20424;-63
2022/05/15 00:51:35;;;;;;;4.33;2.17;;;;;;;22.14;51.86;100441.59;5094273;28;20427;-63
2022/05/15 00:54:14;;;;;;;4.23;1.83;;;;;;;22.14;52.23;100444.47;5084067;28;20222;-63
2022/05/15 00:56:41;;;;;;;6.00;2.40;;;;;;;22.15;52.04;100446.13;5074304;28;20416;-63
2022/05/15 00:59:12;;;;;;;3.37;2.00;;;;;;;22.14;52.07;100445.31;5089618;28;20511;-63
2022/05/15 01:01:38;;;;;;;2.73;1.70;;;;;;;22.14;51.80;100448.19;5090070;28;20419;-63
2022/05/15 01:04:03;;;;;;;4.23;2.03;;;;;;;22.13;52.34;100437.88;5090764;28;20425;-63
2022/05/15 01:06:29;;;;;;;4.33;2.20;;;;;;;22.14;52.00;100441.59;5089974;28;20170;-63
2022/05/15 01:08:55;;;;;;;5.17;2.10;;;;;;;22.13;51.70;100440.75;5090014;28;20178;-63
2022/05/15 01:11:20;;;;;;;3.43;1.93;;;;;;;22.12;52.02;100444.88;5089485;28;20194;-63
2022/05/15 01:13:47;;;;;;;4.00;2.10;;;;;;;22.13;52.42;100445.72;5090469;28;20544;-63
2022/05/15 01:16:13;;;;;;;4.53;2.50;;;;;;;22.13;52.21;100442.84;5090940;27;20182;-63
2022/05/15 01:18:38;;;;;;;5.70;2.27;;;;;;;22.12;52.10;100446.94;5131435;27;20909;-63
2022/05/15 01:21:28;;;;;;;3.37;2.13;;;;;;;22.11;52.35;100451.84;5132856;27;20173;-63
2022/05/15 01:23:54;;;;;;;2.73;1.60;;;;;;;22.11;51.77;100451.84;5132907;27;20517;-63
2022/05/15 01:26:19;;;;;;;5.97;2.53;;;;;;;22.10;52.12;100453.09;5132658;27;20426;-63
2022/05/15 01:28:45;;;;;;;3.30;1.90;;;;;;;22.11;51.88;100456.78;5121972;27;20198;-63
2022/05/15 01:31:11;;;;;;;3.50;1.83;;;;;;;22.11;51.99;100451.84;5112143;28;20186;-63
2022/05/15 01:33:36;;;;;;;4.50;2.27;;;;;;;22.11;52.33;100451.03;5112089;28;20165;-63
2022/05/15 01:36:02;;;;;;;3.93;2.00;;;;;;;22.10;51.96;100453.09;5111929;28;20166;-63
2022/05/15 01:38:27;;;;;;;2.93;2.20;;;;;;;22.08;52.42;100449.78;5095247;28;20201;-63
2022/05/15 01:40:52;;;;;;;3.97;2.03;;;;;;;22.09;51.97;100451.44;5093682;28;20190;-63
2022/05/15 01:43:18;;;;;;;4.60;2.57;;;;;;;22.08;52.58;100443.22;5091645;28;20175;-63
2022/05/15 01:45:43;;;;;;;3.77;2.03;;;;;;;22.08;52.15;100449.78;5091720;28;20561;-63
2022/05/15 01:48:09;;;;;;;4.80;2.43;;;;;;;22.08;52.15;100446.91;5091745;28;20174;-63
2022/05/15 01:50:34;;;;;;;5.00;2.20;;;;;;;22.08;52.50;100455.53;5094008;28;20186;-63
2022/05/15 01:53:00;;;;;;;3.00;1.77;;;;;;;22.07;52.58;100453.88;5091437;28;20561;-63
2022/05/15 01:55:25;;;;;;;4.90;2.33;;;;;;;22.06;52.27;100446.50;5091113;28;20660;-63
2022/05/15 01:57:51;;;;;;;2.90;2.07;;;;;;;22.07;52.27;100445.25;5090063;28;20174;-63
2022/05/15 02:00:19;;;;;;;6.70;2.80;;;;;;;22.06;52.51;100452.25;5091382;28;20174;-63
2022/05/15 02:02:45;;;;;;;4.90;2.30;;;;;;;22.05;52.64;100444.84;5091500;28;20182;-63
2022/05/15 02:05:10;;;;;;;3.33;1.73;;;;;;;22.05;52.73;100441.97;5091160;28;20424;-63
2022/05/15 02:07:36;;;;;;;5.70;2.20;;;;;;;22.06;52.51;100445.66;5091227;28;20249;-63
2022/05/15 02:10:03;;;;;;;3.70;2.13;;;;;;;22.04;52.62;100448.94;5090816;28;20342;-63
2022/05/15 02:12:28;;;;;;;4.40;2.10;;;;;;;22.04;52.15;100442.38;5091059;28;20210;-63
2022/05/15 02:14:53;;;;;;;3.47;2.47;;;;;;;22.04;52.29;100443.19;5090936;28;20541;-63
2022/05/15 02:17:19;;;;;;;4.93;2.37;;;;;;;22.04;52.21;100443.19;5111075;27;20180;-63
2022/05/15 02:19:44;;;;;;;3.60;2.40;;;;;;;22.04;52.55;100442.38;5118790;27;20166;-63
2022/05/15 02:22:12;;;;;;;3.43;2.07;;;;;;;22.04;52.52;100431.69;5110203;28;20174;-63
2022/05/15 02:24:38;;;;;;;4.27;2.10;;;;;;;22.02;52.47;100428.38;5109985;28;20180;-63
2022/05/15 02:27:04;;;;;;;3.80;1.77;;;;;;;22.03;52.21;100429.22;5109788;28;20407;-63
2022/05/15 02:29:29;;;;;;;4.40;1.70;;;;;;;22.02;52.08;100427.56;5109953;28;20771;-63
2022/05/15 02:31:54;;;;;;;3.90;2.33;;;;;;;22.02;52.56;100427.56;5109630;28;20208;-63
2022/05/15 02:34:20;;;;;;;4.40;2.27;;;;;;;22.02;52.62;100436.19;5109752;28;20181;-63
2022/05/15 02:36:45;;;;;;;3.47;2.20;;;;;;;22.02;52.11;100430.44;5107874;28;20170;-63
2022/05/15 02:39:11;;;;;;;4.30;2.07;;;;;;;22.01;52.51;100431.66;5092107;28;20644;-63
2022/05/15 02:41:36;;;;;;;6.63;2.13;;;;;;;22.00;52.26;100427.97;5097812;28;20166;-63
2022/05/15 02:44:02;;;;;;;4.00;2.00;;;;;;;22.01;52.49;100423.03;5113780;28;20234;-63
2022/05/15 02:46:27;;;;;;;4.63;2.00;;;;;;;22.01;52.04;100431.66;5112764;28;20185;-63
2022/05/15 02:51:37;;;;;;;8.30;2.70;;;;;;;21.99;52.22;100429.22;5094455;28;20193;-63
2022/05/15 02:54:02;;;;;;;4.77;2.40;;;;;;;21.98;52.04;100430.41;5095076;28;20420;-63
2022/05/15 02:56:30;;;;;;;4.40;1.90;;;;;;;21.98;52.13;100432.47;5093340;28;20292;-63
2022/05/15 02:58:55;;;;;;;4.50;2.00;;;;;;;21.98;52.13;100432.47;5076734;28;20182;-63
2022/05/15 03:01:20;;;;;;;3.73;1.87;;;;;;;21.97;52.44;100431.63;5094405;28;20426;-63
2022/05/15 03:03:46;;;;;;;4.77;2.03;;;;;;;21.96;52.31;100430.00;5094443;28;20177;-63
2022/05/15 03:06:11;;;;;;;2.90;1.80;;;;;;;21.96;52.21;100434.91;5091337;28;20190;-63
2022/05/15 03:08:39;;;;;;;3.30;2.00;;;;;;;21.96;52.18;100441.50;5091551;28;20182;-63
2022/05/15 03:11:05;;;;;;;3.50;1.90;;;;;;;21.97;51.98;100439.47;5091047;28;20194;-63
2022/05/15 03:13:30;;;;;;;3.17;2.10;;;;;;;21.95;52.10;100439.84;5092854;28;20800;-63
2022/05/15 03:15:56;;;;;;;4.00;1.90;;;;;;;21.96;52.36;100440.66;5092957;28;20556;-63
2022/05/15 03:18:22;;;;;;;3.13;1.90;;;;;;;21.95;51.46;100442.72;5130582;27;20188;-63
2022/05/15 03:20:47;;;;;;;3.90;2.27;;;;;;;21.95;52.52;100445.59;5134524;27;20406;-63
2022/05/15 03:23:13;;;;;;;3.07;2.07;;;;;;;21.95;51.97;100444.75;5135254;27;20234;-63
2022/05/15 03:25:39;;;;;;;3.30;2.00;;;;;;;21.94;52.01;100446.00;5124264;27;20178;-63
2022/05/15 03:28:09;;;;;;;3.40;1.93;;;;;;;21.95;52.31;100442.72;5092844;28;20186;-63
2022/05/15 03:30:38;;;;;;;4.20;2.30;;;;;;;21.94;52.10;100443.13;5090997;28;20767;-63
2022/05/15 03:33:04;;;;;;;2.77;1.90;;;;;;;21.92;52.36;100446.38;5092333;28;20502;-63
2022/05/15 03:35:29;;;;;;;3.97;2.13;;;;;;;21.93;52.16;100448.03;5094753;28;20905;-63
2022/05/15 03:37:55;;;;;;;3.70;2.00;;;;;;;21.92;52.18;100449.25;5092908;28;20202;-63
2022/05/15 03:40:20;;;;;;;4.20;2.03;;;;;;;21.93;52.39;100435.72;5093094;28;20640;-63
2022/05/15 03:42:46;;;;;;;4.60;2.23;;;;;;;21.92;52.00;100432.00;5092259;28;20182;-63
2022/05/15 03:45:11;;;;;;;3.63;2.30;;;;;;;21.92;52.02;100436.97;5092481;28;20240;-63
2022/05/15 03:47:47;;;;;;;3.70;1.90;;;;;;;21.91;52.22;100430.38;5094431;28;20179;-63
2022/05/15 03:50:13;;;;;;;4.23;2.10;;;;;;;21.91;52.05;100426.66;5112274;28;20189;-63
2022/05/15 03:52:38;;;;;;;4.37;2.30;;;;;;;21.91;52.45;100423.78;5112272;28;20542;-63
2022/05/15 03:55:04;;;;;;;3.50;2.07;;;;;;;21.90;52.03;100425.00;5114055;28;20423;-63
2022/05/15 03:57:29;;;;;;;3.53;1.80;;;;;;;21.90;52.37;100413.53;5113982;28;20173;-63
2022/05/15 03:59:55;;;;;;;3.57;2.40;;;;;;;21.90;52.10;100422.97;5112394;28;20171;-63
2022/05/15 04:02:20;;;;;;;4.90;2.17;;;;;;;21.89;52.03;100424.22;5111823;28;20165;-63
2022/05/15 04:04:46;;;;;;;4.10;2.50;;;;;;;21.89;52.12;100421.34;5112055;28;20598;-63
2022/05/15 04:07:11;;;;;;;3.47;2.27;;;;;;;21.89;52.53;100418.47;5105633;28;20672;-63
2022/05/15 04:09:40;;;;;;;3.83;2.13;;;;;;;21.88;52.59;100422.53;5091143;28;20229;-63
2022/05/15 04:12:09;;;;;;;3.47;2.10;;;;;;;21.88;52.21;100433.22;5091156;28;20198;-63
2022/05/15 04:14:34;;;;;;;4.43;2.30;;;;;;;21.88;51.90;100436.09;5110042;28;20505;-63
2022/05/15 04:17:00;;;;;;;3.77;2.17;;;;;;;21.89;52.44;100432.00;5120442;27;20406;-63
2022/05/15 04:19:25;;;;;;;5.53;2.47;;;;;;;21.87;52.30;100432.41;5134097;27;20177;-63
2022/05/15 04:21:51;;;;;;;3.07;2.33;;;;;;;21.87;52.50;100435.28;5134194;27;20300;-63
2022/05/15 04:24:16;;;;;;;3.60;2.10;;;;;;;21.87;52.61;100434.47;5134310;27;20180;-63
2022/05/15 04:26:42;;;;;;;5.30;2.33;;;;;;;21.86;52.41;100433.63;5114817;27;20177;-63
2022/05/15 04:29:08;;;;;;;3.20;2.10;;;;;;;21.87;52.55;100431.59;5133179;27;20161;-63
2022/05/15 04:31:34;;;;;;;4.57;2.27;;;;;;;21.87;52.36;100434.47;5132810;27;20197;-63
2022/05/15 04:34:00;;;;;;;3.40;1.90;;;;;;;21.87;52.23;100438.16;5133119;27;20237;-63
2022/05/15 04:36:25;;;;;;;3.63;2.20;;;;;;;21.89;52.39;100446.38;5119919;27;20217;-63
2022/05/15 04:38:51;;;;;;;4.10;2.57;;;;;;;21.88;51.81;100433.22;5092094;28;20510;-63
2022/05/15 04:41:16;;;;;;;4.27;2.17;;;;;;;21.89;52.41;100447.22;5092604;28;20197;-63
2022/05/15 04:43:42;;;;;;;2.80;1.63;;;;;;;21.89;51.88;100443.50;5092248;28;20167;-63
2022/05/15 04:46:08;;;;;;;8.30;2.73;;;;;;;21.89;52.15;100449.25;5105824;28;20251;-63
2022/05/15 04:48:35;;;;;;;3.80;1.93;;;;;;;21.88;51.84;100445.53;5093170;28;20540;-63
2022/05/15 04:51:00;;;;;;;4.30;2.30;;;;;;;21.88;52.47;100445.53;5105699;28;20411;-63
2022/05/15 04:53:27;;;;;;;5.43;2.73;;;;;;;21.88;52.10;100439.78;5102669;27;20452;-63
2022/05/15 04:55:53;;;;;;;4.70;2.20;;;;;;;21.90;52.38;100448.84;5111194;28;20196;-63
2022/05/15 04:58:18;;;;;;;3.40;2.27;;;;;;;21.93;51.69;100448.03;5112874;28;20927;-63
2022/05/15 05:00:44;;;;;;;3.50;2.17;;;;;;;21.94;51.64;100440.25;5112832;28;20424;-63
2022/05/15 05:03:09;;;;;;;3.50;1.90;;;;;;;21.93;51.96;100445.16;5112463;28;20169;-63
2022/05/15 05:05:35;;;;;;;4.80;2.47;;;;;;;21.92;52.00;100449.25;5112648;28;20521;-63
2022/05/15 05:08:00;;;;;;;6.20;2.70;;;;;;;21.93;52.11;100452.97;5097907;28;20211;-63
2022/05/15 05:10:26;;;;;;;3.50;2.20;;;;;;;21.92;51.77;100451.34;5092095;28;20723;-63
2022/05/15 05:12:52;;;;;;;3.40;2.03;;;;;;;21.91;52.25;100453.38;5103000;28;20216;-63
2022/05/15 05:15:17;;;;;;;3.67;2.30;;;;;;;21.91;52.22;100455.41;5105160;28;20182;-63
2022/05/15 05:17:43;;;;;;;5.50;2.70;;;;;;;21.90;52.43;100462.38;5106052;27;20174;-63
2022/05/15 05:20:10;;;;;;;3.53;2.13;;;;;;;21.91;52.13;100455.41;5103238;28;20189;-63
2022/05/15 05:22:36;;;;;;;3.60;1.97;;;;;;;21.89;52.22;100450.09;5112296;28;20308;-63
2022/05/15 05:25:01;;;;;;;3.80;1.83;;;;;;;21.89;52.39;100452.97;5112163;28;20799;-63
2022/05/15 05:27:27;;;;;;;3.60;2.23;;;;;;;21.89;51.94;100458.72;5111725;28;20196;-63
2022/05/15 05:29:52;;;;;;;6.13;2.20;;;;;;;21.89;52.46;100460.75;5109005;28;20181;-63
2022/05/15 05:32:18;;;;;;;3.07;2.40;;;;;;;21.89;52.53;100460.75;5108696;28;20247;-63
2022/05/15 05:34:43;;;;;;;3.90;2.40;;;;;;;21.88;52.47;100457.03;5110247;28;20588;-63
2022/05/15 05:37:09;;;;;;;4.40;2.60;;;;;;;21.89;52.59;100458.72;5100064;28;20169;-63
2022/05/15 05:39:34;;;;;;;4.73;2.47;;;;;;;21.89;52.12;100461.59;5110249;28;20523;-63
2022/05/15 05:42:00;;;;;;;6.53;2.50;;;;;;;21.88;52.07;100459.91;5094247;28;20170;-63
2022/05/15 05:44:25;;;;;;;4.40;2.00;;;;;;;21.89;52.01;100463.63;5091193;28;20202;-63
2022/05/15 05:46:51;;;;;;;4.10;2.23;;;;;;;21.89;52.67;100463.63;5091828;28;20185;-63
2022/05/15 05:49:16;;;;;;;4.70;2.87;;;;;;;21.88;52.30;100465.66;5091177;28;20268;-63
2022/05/15 05:51:42;;;;;;;4.57;2.33;;;;;;;21.87;52.16;100466.88;5091607;28;20202;-63
2022/05/15 05:54:07;;;;;;;4.87;2.67;;;;;;;21.88;52.61;100462.78;5091456;28;20174;-63
2022/05/15 05:56:33;;;;;;;6.10;2.70;;;;;;;21.89;52.12;100466.50;5091675;28;20186;-63
2022/05/15 05:58:58;;;;;;;6.10;2.50;;;;;;;21.88;52.17;100465.66;5089984;28;20176;-63
2022/05/15 06:01:23;;;;;;;4.97;2.03;;;;;;;21.86;52.70;100468.13;5091336;28;20182;-63
2022/05/15 06:06:33;;;;;;;7.80;2.10;;;;;;;21.87;52.26;100466.88;5110952;28;20628;-63
2022/05/15 06:08:58;;;;;;;4.37;2.27;;;;;;;21.87;52.72;100461.13;5091107;28;20468;-63
2022/05/15 06:11:24;;;;;;;4.10;2.60;;;;;;;21.87;52.77;100466.88;5090841;28;20159;-63
2022/05/15 06:13:49;;;;;;;3.93;2.43;;;;;;;21.86;52.54;100462.38;5088954;28;20174;-63
2022/05/15 06:16:15;;;;;;;3.77;2.67;;;;;;;21.86;52.34;100465.25;5091539;27;20197;-63
2022/05/15 06:18:40;;;;;;;5.20;2.90;;;;;;;21.86;52.43;100467.28;5129364;27;20180;-63
2022/05/15 06:21:05;;;;;;;3.57;2.30;;;;;;;21.86;52.78;100468.13;5131479;27;20538;-63
2022/05/15 06:23:32;;;;;;;3.30;2.20;;;;;;;21.85;52.78;100462.75;5131835;27;20173;-63
2022/05/15 06:25:57;;;;;;;4.80;2.63;;;;;;;21.85;52.23;100468.50;5132001;27;20184;-63
2022/05/15 06:28:23;;;;;;;4.10;2.20;;;;;;;21.85;52.79;100460.72;5131733;27;20539;-63
2022/05/15 06:30:48;;;;;;;3.30;2.27;;;;;;;21.85;52.89;100462.75;5131671;27;20177;-63
2022/05/15 06:33:14;;;;;;;3.70;2.10;;;;;;;21.83;52.46;100460.28;5112966;27;20201;-63
2022/05/15 06:35:39;;;;;;;4.00;2.13;;;;;;;21.84;52.73;100464.84;5111543;28;20315;-63
2022/05/15 06:38:06;;;;;;;3.97;2.10;;;;;;;21.84;52.37;100461.13;5097750;28;20191;-63
2022/05/15 06:40:32;;;;;;;4.10;2.07;;;;;;;21.83;52.76;100460.28;5090812;28;20706;-63
2022/05/15 06:42:57;;;;;;;3.47;2.20;;;;;;;21.84;52.64;100461.97;5090619;28;20423;-63
2022/05/15 06:45:23;;;;;;;3.97;2.20;;;;;;;21.84;52.31;100464.00;5103027;28;20202;-63
2022/05/15 06:47:48;;;;;;;6.00;2.20;;;;;;;21.83;52.82;100454.53;5098181;28;20185;-63
2022/05/15 06:50:14;;;;;;;3.43;1.80;;;;;;;21.83;52.37;100453.72;5090479;28;20181;-63
2022/05/15 06:52:39;;;;;;;3.77;2.37;;;;;;;21.82;52.49;100461.50;5090659;28;20260;-63
2022/05/15 06:55:06;;;;;;;5.37;2.13;;;;;;;21.82;52.76;100458.63;5092118;28;20232;-63
2022/05/15 06:57:33;;;;;;;3.27;2.07;;;;;;;21.82;52.26;100464.38;5090631;28;20189;-63
2022/05/15 07:00:00;;;;;;;5.40;2.60;;;;;;;21.81;52.28;100462.75;5106744;28;20484;-63
2022/05/15 07:02:26;;;;;;;4.33;2.30;;;;;;;21.81;52.38;100459.88;5111027;28;20407;-63
2022/05/15 07:04:52;;;;;;;3.50;2.40;;;;;;;21.81;52.87;100464.78;5110947;28;20423;-63
2022/05/15 07:07:18;;;;;;;6.60;2.80;;;;;;;21.81;52.40;100459.03;5103875;28;20441;-63
2022/05/15 07:09:43;;;;;;;4.80;2.30;;;;;;;21.81;52.30;100467.66;5090286;28;20995;-63
2022/05/15 07:12:09;;;;;;;5.33;2.27;;;;;;;21.80;52.66;100463.97;5090547;28;20660;-63
2022/05/15 07:14:35;;;;;;;5.70;1.97;;;;;;;21.80;52.36;100458.22;5090793;28;20185;-63
2022/05/15 07:17:00;;;;;;;4.33;2.60;;;;;;;21.80;52.72;100460.25;5105024;28;20188;-63
2022/05/15 07:19:26;;;;;;;4.53;2.37;;;;;;;21.80;52.40;100463.13;5131123;27;20161;-63
2022/05/15 07:21:51;;;;;;;4.87;2.47;;;;;;;21.80;52.41;100451.63;5131403;27;20169;-63
2022/05/15 07:24:16;;;;;;;4.53;2.47;;;;;;;21.80;52.53;100451.63;5130080;28;20650;-63
2022/05/15 07:26:45;;;;;;;4.43;2.40;;;;;;;21.81;52.57;100456.16;5134998;27;20169;-63
2022/05/15 07:29:13;;;;;;;5.00;2.83;;;;;;;21.80;52.72;100448.75;5135052;27;20185;-63
2022/05/15 07:31:39;;;;;;;6.00;2.67;;;;;;;21.80;52.15;100452.47;5135082;27;20474;-63
2022/05/15 07:34:04;;;;;;;4.17;2.47;;;;;;;21.79;52.82;100453.72;5134961;27;20470;-63
2022/05/15 07:36:30;;;;;;;4.60;2.30;;;;;;;21.79;52.69;100450.84;5133830;27;20172;-62
2022/05/15 07:38:55;;;;;;;3.50;2.30;;;;;;;21.79;52.67;100441.38;5093832;28;20182;-63
2022/05/15 07:41:21;;;;;;;5.00;2.80;;;;;;;21.79;52.38;100450.84;5093753;28;20190;-63
2022/05/15 07:43:47;;;;;;;4.03;2.73;;;;;;;21.79;53.10;100447.97;5093864;28;20192;-63
2022/05/15 07:46:12;;;;;;;5.17;2.10;;;;;;;21.79;52.89;100445.09;5111773;28;20443;-63
2022/05/15 07:48:37;;;;;;;4.60;2.27;;;;;;;21.78;52.53;100443.41;5111215;28;20177;-63
2022/05/15 07:51:03;;;;;;;4.80;2.37;;;;;;;21.79;52.41;100441.38;5111749;28;20182;-63
2022/05/15 07:53:29;;;;;;;2.87;1.93;;;;;;;21.77;52.43;100443.84;5111788;28;20192;-63
2022/05/15 07:55:55;;;;;;;4.47;2.30;;;;;;;21.77;53.01;100447.50;5111975;28;20177;-63
2022/05/15 07:58:20;;;;;;;3.53;2.30;;;;;;;21.77;52.60;100441.78;5109005;28;20182;-63
2022/05/15 08:00:46;;;;;;;4.87;2.57;;;;;;;21.76;52.61;100443.00;5102126;28;20422;-63
2022/05/15 08:03:11;;;;;;;3.70;2.40;;;;;;;21.77;52.75;100450.38;5105696;28;20174;-63
2022/05/15 08:08:21;;;;;;;5.47;2.30;;;;;;;21.77;52.73;100444.63;5097607;28;20200;-63
2022/05/15 08:10:47;;;;;;;4.23;2.40;;;;;;;21.77;52.73;100453.25;5107499;28;20459;-63
2022/05/15 08:13:14;;;;;;;5.03;2.17;;;;;;;21.78;53.25;100449.16;5098932;28;20210;-63
2022/05/15 08:15:40;;;;;;;4.80;2.13;;;;;;;21.77;53.11;100444.63;5090245;28;20174;-63
2022/05/15 08:23:52;;;;;;;3.60;2.13;;;;;;;21.77;52.93;100441.78;5132775;27;20438;-63
2022/05/15 08:26:18;;;;;;;7.93;2.00;;;;;;;21.78;52.92;100443.41;5104009;27;20449;-63
2022/05/15 08:28:43;;;;;;;3.40;2.30;;;;;;;21.78;53.08;100434.78;5091205;28;20515;-63
2022/05/15 08:31:09;;;;;;;4.20;2.60;;;;;;;21.78;53.07;100437.66;5093006;28;20571;-63
2022/05/15 08:33:35;;;;;;;3.43;2.27;;;;;;;21.77;53.27;100436.03;5104317;28;20225;-63
2022/05/15 08:36:01;;;;;;;4.20;2.50;;;;;;;21.78;52.76;100431.91;5112155;28;20173;-63
2022/05/15 08:38:27;;;;;;;5.37;2.60;;;;;;;21.79;52.78;100438.50;5101374;27;21191;-63
2022/05/15 08:41:02;;;;;;;5.07;2.50;;;;;;;21.78;52.82;100431.91;5110390;28;20185;-63
2022/05/15 08:43:33;;;;;;;4.30;2.60;;;;;;;21.79;53.17;100433.59;5101378;28;20521;-63
2022/05/15 08:46:06;;;;;;;4.90;2.40;;;;;;;21.79;52.80;100429.88;5091395;28;20848;-63
2022/05/15 08:48:34;;;;;;;5.33;2.60;;;;;;;21.79;52.81;100430.72;5090203;28;20478;-63
2022/05/15 08:51:00;;;;;;;3.53;2.20;;;;;;;21.78;53.15;100423.28;5099925;28;20516;-63
2022/05/15 08:53:35;;;;;;;4.20;2.53;;;;;;;21.80;53.00;100425.78;5089046;28;20470;-63
2022/05/15 08:56:07;;;;;;;5.83;2.50;;;;;;;21.80;52.44;100428.66;5102712;28;20181;-63
2022/05/15 08:58:38;;;;;;;4.20;2.33;;;;;;;21.79;52.93;100427.00;5101606;28;20443;-63
2022/05/15 09:01:05;;;;;;;7.00;2.40;;;;;;;21.80;52.56;100432.34;5098607;28;20828;-63
2022/05/15 09:03:33;;;;;;;4.33;2.23;;;;;;;21.80;52.96;100432.34;5104653;28;20466;-63
2022/05/15 09:06:03;;;;;;;4.23;2.13;;;;;;;21.80;52.79;100429.47;5104208;28;20438;-63
2022/05/15 09:08:46;;;;;;;4.53;2.83;;;;;;;21.81;52.64;100422.50;5107084;28;20830;-63
2022/05/15 09:11:12;;;;;;;3.93;2.13;;;;;;;21.81;52.45;100416.75;5110978;28;20450;-63
2022/05/15 09:13:45;;;;;;;4.00;2.03;;;;;;;21.82;52.41;100418.41;5110515;28;20467;-63
2022/05/15 09:16:25;;;;;;;5.67;2.47;;;;;;;21.83;52.63;100420.03;5109444;27;20182;-63
2022/05/15 09:18:50;;;;;;;5.20;2.70;;;;;;;21.83;52.44;100407.75;5130384;27;20423;-63
2022/05/15 09:21:17;;;;;;;4.63;2.40;;;;;;;21.83;52.60;100411.41;5132816;27;20805;-63
2022/05/15 09:23:47;;;;;;;6.10;2.47;;;;;;;21.83;52.88;100411.41;5132903;27;20528;-63
2022/05/15 09:26:16;;;;;;;3.83;2.40;;;;;;;21.83;52.65;100413.50;5114766;27;20411;-63
2022/05/15 09:28:50;;;;;;;4.93;2.67;;;;;;;21.83;52.68;100405.66;5132802;27;20865;-63
2022/05/15 09:31:35;;;;;;;3.97;2.30;;;;;;;21.84;52.64;100410.22;5131671;27;20415;-63
2022/05/15 09:34:20;;;;;;;6.50;2.70;;;;;;;21.84;52.76;100403.63;5125017;27;20416;-63
2022/05/15 09:36:45;;;;;;;3.57;2.27;;;;;;;21.84;53.17;100409.38;5090099;28;20520;-63
2022/05/15 09:39:36;;;;;;;4.97;2.57;;;;;;;21.85;52.91;100409.00;5090673;28;20896;-63
2022/05/15 09:45:07;;;;;;;4.30;2.60;;;;;;;21.96;53.63;100400.41;5111041;28;20805;-63
2022/05/15 09:47:39;;;;;;;9.13;3.33;;;;;;;22.19;54.64;100398.09;5093520;28;20416;-63
2022/05/15 09:50:06;;;;;;;7.13;3.30;;;;;;;22.24;56.46;100395.66;5090485;28;20899;-63
2022/05/15 09:52:42;;;;;;;7.73;3.07;;;;;;;22.17;55.55;100392.72;5090046;28;20499;-63
2022/05/15 09:55:22;;;;;;;5.77;2.70;;;;;;;22.22;56.02;100385.78;5090826;28;20412;-62
2022/05/15 09:58:16;;;;;;;7.60;3.30;;;;;;;22.31;55.86;100378.41;5089866;28;20397;-62
2022/05/15 10:00:42;;;;;;;8.97;2.77;;;;;;;22.26;56.35;100384.56;5089794;28;20922;-62
2022/05/15 10:03:24;;;;;;;6.40;2.93;;;;;;;22.29;55.49;100372.25;5088473;28;20405;-62
2022/05/15 10:06:06;;;;;;;7.13;2.67;;;;;;;22.30;55.83;100365.28;5088400;28;20181;-63
2022/05/15 10:08:32;;;;;;;4.87;2.50;;;;;;;22.33;55.20;100364.44;5089778;28;20445;-63
2022/05/15 10:11:25;;;;;;;16.70;3.00;;;;;;;22.36;54.38;100357.88;5089647;28;20472;-63
2022/05/15 10:13:52;;;;;;;6.23;2.57;;;;;;;22.40;54.12;100357.88;5091044;28;20428;-63
2022/05/15 10:16:33;;;;;;;7.50;2.73;;;;;;;22.36;54.43;100355.00;5074960;28;20432;-63
2022/05/15 10:19:17;;;;;;;4.50;2.53;;;;;;;22.39;56.70;100357.09;5103088;28;20443;-63
2022/05/15 10:21:44;;;;;;;10.30;3.00;;;;;;;22.35;55.85;100352.53;5106163;28;20835;-63
2022/05/15 10:24:31;;;;;;;11.97;3.20;;;;;;;22.38;55.18;100349.66;5097445;28;20436;-63
2022/05/15 10:27:10;;;;;;;6.23;2.73;;;;;;;22.43;54.30;100352.16;5106973;28;20919;-63
2022/05/15 10:29:53;;;;;;;8.30;2.80;;;;;;;22.48;54.50;100336.59;5107114;28;20945;-63
2022/05/15 10:32:35;;;;;;;6.60;2.70;;;;;;;22.57;53.38;100334.97;5091424;28;20455;-63
2022/05/15 10:35:00;;;;;;;7.63;2.57;;;;;;;22.49;54.69;100329.59;5107123;28;20472;-63
2022/05/15 10:37:44;;;;;;;6.63;2.40;;;;;;;22.51;54.40;100327.97;5100106;28;20428;-63
2022/05/15 10:40:21;;;;;;;6.90;2.77;;;;;;;22.64;52.73;100326.34;5087988;28;20621;-63
2022/05/15 10:43:08;;;;;;;10.60;3.40;;;;;;;22.64;53.90;100323.47;5087714;28;20412;-63
2022/05/15 10:45:55;;;;;;;7.77;3.00;;;;;;;22.68;53.65;100324.28;5095688;28;20435;-63
2022/05/15 10:48:33;;;;;;;8.80;2.77;;;;;;;22.78;54.21;100317.72;5090823;28;20417;-63
2022/05/15 10:51:17;;;;;;;6.93;2.87;;;;;;;22.78;54.60;100314.03;5094420;28;20420;-63
2022/05/15 11:00:06;;;;;;;8.50;3.17;;;;;;;22.86;54.95;100307.03;5089376;28;20840;-63
2022/05/15 11:02:56;;;;;;;6.20;2.50;;;;;;;22.84;54.28;100301.72;5097056;27;20998;-63
2022/05/15 11:05:32;;;;;;;8.23;2.70;;;;;;;22.91;53.45;100287.31;5111507;28;20400;-63
2022/05/15 11:08:19;;;;;;;10.63;2.53;;;;;;;22.82;54.25;100295.53;5099778;28;20468;-63
2022/05/15 11:11:04;;;;;;;6.30;2.63;;;;;;;22.85;54.25;100288.97;5090506;28;21091;-63
2022/05/15 11:13:35;;;;;;;5.73;2.50;;;;;;;22.86;53.93;100296.34;5092702;28;21116;-63
2022/05/15 11:16:06;;;;;;;6.87;2.37;;;;;;;22.85;53.71;100277.44;5090497;28;20412;-63
2022/05/15 11:18:42;;;;;;;4.83;2.37;;;;;;;22.93;53.45;100284.81;5122055;27;20905;-63
2022/05/15 11:21:15;;;;;;;6.37;2.57;;;;;;;22.93;53.30;100279.06;5106875;28;20454;-63
2022/05/15 11:23:53;;;;;;;8.30;2.60;;;;;;;22.97;52.19;100274.13;5093928;28;20432;-63
2022/05/15 11:26:25;;;;;;;5.30;2.47;;;;;;;23.08;51.64;100269.19;5092236;28;20470;-63
2022/05/15 11:28:54;;;;;;;6.60;2.30;;;;;;;23.04;51.08;100274.16;5093026;28;20557;-63
2022/05/15 11:31:23;;;;;;;6.70;2.30;;;;;;;22.92;51.80;100268.78;5107386;28;20435;-63
2022/05/15 11:33:50;;;;;;;9.07;2.60;;;;;;;23.02;52.05;100270.84;5095266;28;20452;-63
2022/05/15 11:36:21;;;;;;;6.23;2.40;;;;;;;23.05;52.29;100263.44;5095019;28;20432;-63
2022/05/15 11:39:15;;;;;;;7.53;2.60;;;;;;;22.91;52.39;100261.41;5099245;28;20484;-63
2022/05/15 11:41:44;;;;;;;5.83;2.57;;;;;;;23.03;51.88;100258.09;5114181;28;20408;-64
2022/05/15 11:44:30;;;;;;;4.83;2.20;;;;;;;23.10;51.33;100255.22;5113081;28;20414;-62
2022/05/15 11:47:00;;;;;;;10.07;3.37;;;;;;;22.95;52.17;100247.81;5104448;28;20439;-62
2022/05/15 11:49:38;;;;;;;9.30;2.60;;;;;;;23.05;52.24;100251.91;5112180;28;20424;-62
2022/05/15 11:52:03;;;;;;;7.73;2.17;;;;;;;23.09;52.26;100250.66;5111966;28;20524;-62
2022/05/15 11:54:30;;;;;;;7.67;2.37;;;;;;;23.10;51.78;100242.84;5114115;28;20407;-62